Terminal Aerodrome Forecast
Issued by NWS Wilmington, OH

Current Version | Previous Version | Text Only | Print | Product List | Glossary Off
Versions: 1 2 3 4 5 6 7 8 9 10 11 12 13 14 15 16 17 18 19 20 21 22 23 24 25 26 27

828
FTUS41 KILN 201419 AAA
TAFCVG
TAF AMD
KCVG 201419Z 2014/2118 12009KT 6SM -RA VCTS OVC050CB
      TEMPO 2015/2017 5SM -TSRA BR OVC028CB
     FM210000 VRB03KT 4SM -SHRA BR OVC035
     FM210200 VRB03KT 5SM BR OVC015
     FM210500 36005KT 5SM BR OVC007=

USA.gov is the U.S. government's official web portal to all federal, state and local government web resources and services.